sensor_id;sensor_type;location;lat;lon;timestamp;P1;durP1;ratioP1;P2;durP2;ratioP2
78053;SDS011;67726;45.636;11.752;2023-12-20T00:00:25;93.07;;;49.15;;
78053;SDS011;67726;45.636;11.752;2023-12-20T00:02:51;100.03;;;49.80;;
78053;SDS011;67726;45.636;11.752;2023-12-20T00:05:16;101.38;;;49.78;;
78053;SDS011;67726;45.636;11.752;2023-12-20T00:07:42;100.57;;;47.93;;
78053;SDS011;67726;45.636;11.752;2023-12-20T00:10:09;104.13;;;52.75;;
78053;SDS011;67726;45.636;11.752;2023-12-20T00:12:35;99.53;;;50.20;;
78053;SDS011;67726;45.636;11.752;2023-12-20T00:15:01;103.30;;;49.27;;
78053;SDS011;67726;45.636;11.752;2023-12-20T00:17:26;100.07;;;47.25;;
78053;SDS011;67726;45.636;11.752;2023-12-20T00:19:52;99.40;;;48.53;;
78053;SDS011;67726;45.636;11.752;2023-12-20T00:22:17;99.70;;;48.43;;
78053;SDS011;67726;45.636;11.752;2023-12-20T00:24:43;91.07;;;46.60;;
78053;SDS011;67726;45.636;11.752;2023-12-20T00:27:09;99.70;;;47.83;;
78053;SDS011;67726;45.636;11.752;2023-12-20T00:29:34;93.13;;;47.08;;
78053;SDS011;67726;45.636;11.752;2023-12-20T00:32:00;95.13;;;46.40;;
78053;SDS011;67726;45.636;11.752;2023-12-20T00:34:25;87.60;;;45.95;;
78053;SDS011;67726;45.636;11.752;2023-12-20T00:36:51;84.10;;;45.10;;
78053;SDS011;67726;45.636;11.752;2023-12-20T00:39:17;86.00;;;47.30;;
78053;SDS011;67726;45.636;11.752;2023-12-20T00:41:42;91.95;;;46.13;;
78053;SDS011;67726;45.636;11.752;2023-12-20T00:44:08;93.60;;;46.30;;
78053;SDS011;67726;45.636;11.752;2023-12-20T00:46:34;93.05;;;45.75;;
78053;SDS011;67726;45.636;11.752;2023-12-20T00:48:59;91.30;;;45.63;;
78053;SDS011;67726;45.636;11.752;2023-12-20T00:51:25;95.85;;;46.25;;
78053;SDS011;67726;45.636;11.752;2023-12-20T00:53:51;97.77;;;47.60;;
78053;SDS011;67726;45.636;11.752;2023-12-20T00:56:19;91.18;;;45.42;;
78053;SDS011;67726;45.636;11.752;2023-12-20T00:58:46;86.97;;;46.03;;
78053;SDS011;67726;45.636;11.752;2023-12-20T01:01:11;91.47;;;43.80;;
78053;SDS011;67726;45.636;11.752;2023-12-20T01:03:37;88.40;;;45.70;;
78053;SDS011;67726;45.636;11.752;2023-12-20T01:06:03;88.50;;;45.25;;
78053;SDS011;67726;45.636;11.752;2023-12-20T01:08:30;84.67;;;44.87;;
78053;SDS011;67726;45.636;11.752;2023-12-20T01:10:56;90.63;;;45.65;;
78053;SDS011;67726;45.636;11.752;2023-12-20T01:13:21;87.30;;;46.13;;
78053;SDS011;67726;45.636;11.752;2023-12-20T01:15:47;93.53;;;45.35;;
78053;SDS011;67726;45.636;11.752;2023-12-20T01:18:13;90.60;;;44.87;;
78053;SDS011;67726;45.636;11.752;2023-12-20T01:20:39;85.83;;;45.20;;
78053;SDS011;67726;45.636;11.752;2023-12-20T01:23:05;84.00;;;44.70;;
78053;SDS011;67726;45.636;11.752;2023-12-20T01:25:30;85.93;;;43.37;;
78053;SDS011;67726;45.636;11.752;2023-12-20T01:27:56;87.88;;;43.88;;
78053;SDS011;67726;45.636;11.752;2023-12-20T01:30:22;83.40;;;42.53;;
78053;SDS011;67726;45.636;11.752;2023-12-20T01:32:47;76.13;;;42.00;;
78053;SDS011;67726;45.636;11.752;2023-12-20T01:35:13;77.27;;;40.73;;
78053;SDS011;67726;45.636;11.752;2023-12-20T01:37:39;77.03;;;41.17;;
78053;SDS011;67726;45.636;11.752;2023-12-20T01:40:05;87.20;;;42.37;;
78053;SDS011;67726;45.636;11.752;2023-12-20T01:42:31;82.65;;;42.25;;
78053;SDS011;67726;45.636;11.752;2023-12-20T01:44:57;80.37;;;39.63;;
78053;SDS011;67726;45.636;11.752;2023-12-20T01:47:22;81.70;;;40.47;;
78053;SDS011;67726;45.636;11.752;2023-12-20T01:49:48;86.70;;;42.83;;
78053;SDS011;67726;45.636;11.752;2023-12-20T01:52:15;81.43;;;41.63;;
78053;SDS011;67726;45.636;11.752;2023-12-20T01:54:41;75.25;;;40.30;;
78053;SDS011;67726;45.636;11.752;2023-12-20T01:57:08;73.05;;;39.00;;
78053;SDS011;67726;45.636;11.752;2023-12-20T01:59:34;81.25;;;41.42;;
78053;SDS011;67726;45.636;11.752;2023-12-20T02:02:00;79.10;;;40.83;;
78053;SDS011;67726;45.636;11.752;2023-12-20T02:04:28;83.73;;;41.17;;
78053;SDS011;67726;45.636;11.752;2023-12-20T02:06:54;89.05;;;42.67;;
78053;SDS011;67726;45.636;11.752;2023-12-20T02:09:22;87.97;;;42.25;;
78053;SDS011;67726;45.636;11.752;2023-12-20T02:11:47;77.40;;;41.87;;
78053;SDS011;67726;45.636;11.752;2023-12-20T02:14:14;87.00;;;41.42;;
78053;SDS011;67726;45.636;11.752;2023-12-20T02:16:40;82.70;;;41.70;;
78053;SDS011;67726;45.636;11.752;2023-12-20T02:19:07;81.87;;;42.33;;
78053;SDS011;67726;45.636;11.752;2023-12-20T02:21:38;77.05;;;41.92;;
78053;SDS011;67726;45.636;11.752;2023-12-20T02:24:04;81.00;;;39.67;;
78053;SDS011;67726;45.636;11.752;2023-12-20T02:26:30;80.60;;;41.65;;
78053;SDS011;67726;45.636;11.752;2023-12-20T02:28:58;80.30;;;40.75;;
78053;SDS011;67726;45.636;11.752;2023-12-20T02:31:25;73.22;;;38.58;;
78053;SDS011;67726;45.636;11.752;2023-12-20T02:33:50;78.67;;;39.40;;
78053;SDS011;67726;45.636;11.752;2023-12-20T02:36:16;80.83;;;40.97;;
78053;SDS011;67726;45.636;11.752;2023-12-20T02:38:41;73.60;;;38.88;;
78053;SDS011;67726;45.636;11.752;2023-12-20T02:41:07;68.30;;;39.20;;
78053;SDS011;67726;45.636;11.752;2023-12-20T02:43:33;75.78;;;39.38;;
78053;SDS011;67726;45.636;11.752;2023-12-20T02:45:58;82.00;;;41.37;;
78053;SDS011;67726;45.636;11.752;2023-12-20T02:48:24;73.93;;;39.80;;
78053;SDS011;67726;45.636;11.752;2023-12-20T02:50:50;67.57;;;38.33;;
78053;SDS011;67726;45.636;11.752;2023-12-20T02:53:16;74.82;;;38.97;;
78053;SDS011;67726;45.636;11.752;2023-12-20T02:55:41;75.70;;;39.27;;
78053;SDS011;67726;45.636;11.752;2023-12-20T02:58:07;75.50;;;38.83;;
78053;SDS011;67726;45.636;11.752;2023-12-20T03:00:33;69.57;;;37.70;;
78053;SDS011;67726;45.636;11.752;2023-12-20T03:02:59;74.00;;;38.70;;
78053;SDS011;67726;45.636;11.752;2023-12-20T03:05:25;74.30;;;39.03;;
78053;SDS011;67726;45.636;11.752;2023-12-20T03:07:50;67.00;;;34.97;;
78053;SDS011;67726;45.636;11.752;2023-12-20T03:10:17;66.03;;;36.03;;
78053;SDS011;67726;45.636;11.752;2023-12-20T03:12:43;66.88;;;35.60;;
78053;SDS011;67726;45.636;11.752;2023-12-20T03:15:09;67.97;;;34.97;;
78053;SDS011;67726;45.636;11.752;2023-12-20T03:17:35;74.80;;;36.78;;
78053;SDS011;67726;45.636;11.752;2023-12-20T03:20:01;66.88;;;36.45;;
78053;SDS011;67726;45.636;11.752;2023-12-20T03:22:27;74.43;;;36.67;;
78053;SDS011;67726;45.636;11.752;2023-12-20T03:24:53;70.80;;;36.25;;
78053;SDS011;67726;45.636;11.752;2023-12-20T03:27:18;67.13;;;35.87;;
78053;SDS011;67726;45.636;11.752;2023-12-20T03:29:44;71.05;;;36.70;;
78053;SDS011;67726;45.636;11.752;2023-12-20T03:32:10;62.57;;;35.70;;
78053;SDS011;67726;45.636;11.752;2023-12-20T03:34:35;70.60;;;36.83;;
78053;SDS011;67726;45.636;11.752;2023-12-20T03:37:01;65.77;;;36.17;;
78053;SDS011;67726;45.636;11.752;2023-12-20T03:39:27;63.67;;;34.80;;
78053;SDS011;67726;45.636;11.752;2023-12-20T03:41:52;63.75;;;34.22;;
78053;SDS011;67726;45.636;11.752;2023-12-20T03:44:18;65.30;;;34.70;;
78053;SDS011;67726;45.636;11.752;2023-12-20T03:46:43;66.88;;;35.55;;
78053;SDS011;67726;45.636;11.752;2023-12-20T03:49:10;67.80;;;34.47;;
78053;SDS011;67726;45.636;11.752;2023-12-20T03:51:36;61.55;;;34.60;;
78053;SDS011;67726;45.636;11.752;2023-12-20T03:54:02;58.33;;;31.55;;
78053;SDS011;67726;45.636;11.752;2023-12-20T03:56:28;58.97;;;30.73;;
78053;SDS011;67726;45.636;11.752;2023-12-20T03:58:53;65.18;;;34.28;;
78053;SDS011;67726;45.636;11.752;2023-12-20T04:01:19;60.07;;;32.40;;
78053;SDS011;67726;45.636;11.752;2023-12-20T04:03:45;58.03;;;32.55;;
78053;SDS011;67726;45.636;11.752;2023-12-20T04:06:15;53.13;;;29.67;;
78053;SDS011;67726;45.636;11.752;2023-12-20T04:08:42;58.75;;;30.83;;
78053;SDS011;67726;45.636;11.752;2023-12-20T04:11:08;63.47;;;32.50;;
78053;SDS011;67726;45.636;11.752;2023-12-20T04:13:33;56.70;;;29.42;;
78053;SDS011;67726;45.636;11.752;2023-12-20T04:15:59;52.87;;;28.53;;
78053;SDS011;67726;45.636;11.752;2023-12-20T04:18:25;54.03;;;28.20;;
78053;SDS011;67726;45.636;11.752;2023-12-20T04:20:50;51.63;;;27.02;;
78053;SDS011;67726;45.636;11.752;2023-12-20T04:23:16;45.25;;;26.02;;
78053;SDS011;67726;45.636;11.752;2023-12-20T04:25:42;51.17;;;27.60;;
78053;SDS011;67726;45.636;11.752;2023-12-20T04:28:08;53.45;;;27.38;;
78053;SDS011;67726;45.636;11.752;2023-12-20T04:30:33;47.90;;;26.50;;
78053;SDS011;67726;45.636;11.752;2023-12-20T04:33:00;52.55;;;28.35;;
78053;SDS011;67726;45.636;11.752;2023-12-20T04:35:25;56.83;;;29.17;;
78053;SDS011;67726;45.636;11.752;2023-12-20T04:37:51;52.08;;;27.38;;
78053;SDS011;67726;45.636;11.752;2023-12-20T04:40:17;56.27;;;27.40;;
78053;SDS011;67726;45.636;11.752;2023-12-20T04:42:42;48.03;;;27.27;;
78053;SDS011;67726;45.636;11.752;2023-12-20T04:45:08;51.77;;;26.87;;
78053;SDS011;67726;45.636;11.752;2023-12-20T04:47:34;54.80;;;27.60;;
78053;SDS011;67726;45.636;11.752;2023-12-20T04:49:59;48.97;;;25.73;;
78053;SDS011;67726;45.636;11.752;2023-12-20T04:52:25;48.65;;;27.17;;
78053;SDS011;67726;45.636;11.752;2023-12-20T04:54:51;49.73;;;26.30;;
78053;SDS011;67726;45.636;11.752;2023-12-20T04:57:17;50.83;;;27.15;;
78053;SDS011;67726;45.636;11.752;2023-12-20T04:59:42;50.43;;;27.87;;
78053;SDS011;67726;45.636;11.752;2023-12-20T05:02:08;50.92;;;27.17;;
78053;SDS011;67726;45.636;11.752;2023-12-20T05:04:34;51.50;;;28.03;;
78053;SDS011;67726;45.636;11.752;2023-12-20T05:07:00;47.77;;;25.77;;
78053;SDS011;67726;45.636;11.752;2023-12-20T05:09:25;47.47;;;25.67;;
78053;SDS011;67726;45.636;11.752;2023-12-20T05:11:51;49.53;;;25.42;;
78053;SDS011;67726;45.636;11.752;2023-12-20T05:14:17;45.50;;;24.87;;
78053;SDS011;67726;45.636;11.752;2023-12-20T05:16:42;47.38;;;24.80;;
78053;SDS011;67726;45.636;11.752;2023-12-20T05:19:08;45.57;;;24.70;;
78053;SDS011;67726;45.636;11.752;2023-12-20T05:21:34;46.38;;;23.83;;
78053;SDS011;67726;45.636;11.752;2023-12-20T05:23:59;47.37;;;25.20;;
78053;SDS011;67726;45.636;11.752;2023-12-20T05:26:25;48.88;;;25.08;;
78053;SDS011;67726;45.636;11.752;2023-12-20T05:28:51;48.27;;;23.83;;
78053;SDS011;67726;45.636;11.752;2023-12-20T05:31:17;44.55;;;24.05;;
78053;SDS011;67726;45.636;11.752;2023-12-20T05:33:43;49.78;;;25.77;;
78053;SDS011;67726;45.636;11.752;2023-12-20T05:36:08;45.77;;;24.37;;
78053;SDS011;67726;45.636;11.752;2023-12-20T05:38:36;40.58;;;23.15;;
78053;SDS011;67726;45.636;11.752;2023-12-20T05:41:02;48.22;;;24.95;;
78053;SDS011;67726;45.636;11.752;2023-12-20T05:43:28;50.27;;;24.80;;
78053;SDS011;67726;45.636;11.752;2023-12-20T05:45:54;45.35;;;25.05;;
78053;SDS011;67726;45.636;11.752;2023-12-20T05:48:20;44.80;;;24.53;;
78053;SDS011;67726;45.636;11.752;2023-12-20T05:50:45;43.78;;;24.15;;
78053;SDS011;67726;45.636;11.752;2023-12-20T05:53:11;39.07;;;21.80;;
78053;SDS011;67726;45.636;11.752;2023-12-20T05:55:37;39.33;;;22.13;;
78053;SDS011;67726;45.636;11.752;2023-12-20T05:58:02;40.70;;;22.23;;
78053;SDS011;67726;45.636;11.752;2023-12-20T06:00:28;44.63;;;23.75;;
78053;SDS011;67726;45.636;11.752;2023-12-20T06:02:54;40.30;;;22.30;;
78053;SDS011;67726;45.636;11.752;2023-12-20T06:05:19;39.63;;;20.20;;
78053;SDS011;67726;45.636;11.752;2023-12-20T06:07:45;41.87;;;22.23;;
78053;SDS011;67726;45.636;11.752;2023-12-20T06:10:13;40.45;;;23.83;;
78053;SDS011;67726;45.636;11.752;2023-12-20T06:12:39;37.80;;;22.93;;
78053;SDS011;67726;45.636;11.752;2023-12-20T06:15:04;40.87;;;23.20;;
78053;SDS011;67726;45.636;11.752;2023-12-20T06:17:31;39.97;;;24.02;;
78053;SDS011;67726;45.636;11.752;2023-12-20T06:19:57;41.30;;;23.27;;
78053;SDS011;67726;45.636;11.752;2023-12-20T06:22:23;42.80;;;23.40;;
78053;SDS011;67726;45.636;11.752;2023-12-20T06:24:48;39.55;;;23.35;;
78053;SDS011;67726;45.636;11.752;2023-12-20T06:27:14;39.10;;;22.50;;
78053;SDS011;67726;45.636;11.752;2023-12-20T06:29:40;42.42;;;24.63;;
78053;SDS011;67726;45.636;11.752;2023-12-20T06:32:06;38.22;;;22.98;;
78053;SDS011;67726;45.636;11.752;2023-12-20T06:34:32;42.40;;;23.67;;
78053;SDS011;67726;45.636;11.752;2023-12-20T06:36:57;46.73;;;25.73;;
78053;SDS011;67726;45.636;11.752;2023-12-20T06:39:23;45.30;;;25.80;;
78053;SDS011;67726;45.636;11.752;2023-12-20T06:41:49;55.67;;;29.03;;
78053;SDS011;67726;45.636;11.752;2023-12-20T06:44:14;50.28;;;27.83;;
78053;SDS011;67726;45.636;11.752;2023-12-20T06:46:40;50.30;;;27.17;;
78053;SDS011;67726;45.636;11.752;2023-12-20T06:49:06;50.33;;;28.60;;
78053;SDS011;67726;45.636;11.752;2023-12-20T06:51:31;46.80;;;27.17;;
78053;SDS011;67726;45.636;11.752;2023-12-20T06:53:57;46.05;;;26.23;;
78053;SDS011;67726;45.636;11.752;2023-12-20T06:56:23;48.20;;;26.97;;
78053;SDS011;67726;45.636;11.752;2023-12-20T06:58:49;63.85;;;30.50;;
78053;SDS011;67726;45.636;11.752;2023-12-20T07:01:15;48.37;;;25.53;;
78053;SDS011;67726;45.636;11.752;2023-12-20T07:03:41;45.05;;;22.73;;
78053;SDS011;67726;45.636;11.752;2023-12-20T07:06:07;45.53;;;25.08;;
78053;SDS011;67726;45.636;11.752;2023-12-20T07:08:33;49.70;;;25.70;;
78053;SDS011;67726;45.636;11.752;2023-12-20T07:10:59;51.93;;;27.03;;
78053;SDS011;67726;45.636;11.752;2023-12-20T07:13:25;58.42;;;29.85;;
78053;SDS011;67726;45.636;11.752;2023-12-20T07:15:50;58.77;;;31.53;;
78053;SDS011;67726;45.636;11.752;2023-12-20T07:18:16;59.78;;;31.63;;
78053;SDS011;67726;45.636;11.752;2023-12-20T07:20:42;68.80;;;32.67;;
78053;SDS011;67726;45.636;11.752;2023-12-20T07:23:08;63.80;;;32.92;;
78053;SDS011;67726;45.636;11.752;2023-12-20T07:25:34;62.63;;;31.83;;
78053;SDS011;67726;45.636;11.752;2023-12-20T07:27:59;195.80;;;73.63;;
78053;SDS011;67726;45.636;11.752;2023-12-20T07:30:25;105.82;;;45.55;;
78053;SDS011;67726;45.636;11.752;2023-12-20T07:32:51;48.23;;;27.13;;
78053;SDS011;67726;45.636;11.752;2023-12-20T07:35:18;46.83;;;26.23;;
78053;SDS011;67726;45.636;11.752;2023-12-20T07:37:44;45.03;;;26.52;;
78053;SDS011;67726;45.636;11.752;2023-12-20T07:40:09;49.90;;;25.77;;
78053;SDS011;67726;45.636;11.752;2023-12-20T07:42:35;49.42;;;25.40;;
78053;SDS011;67726;45.636;11.752;2023-12-20T07:45:01;48.58;;;25.55;;
78053;SDS011;67726;45.636;11.752;2023-12-20T07:47:27;47.57;;;26.50;;
78053;SDS011;67726;45.636;11.752;2023-12-20T07:49:52;37.88;;;24.02;;
78053;SDS011;67726;45.636;11.752;2023-12-20T07:52:18;43.73;;;22.90;;
78053;SDS011;67726;45.636;11.752;2023-12-20T07:54:44;47.78;;;24.15;;
78053;SDS011;67726;45.636;11.752;2023-12-20T07:57:10;43.83;;;22.67;;
78053;SDS011;67726;45.636;11.752;2023-12-20T07:59:36;41.45;;;22.92;;
78053;SDS011;67726;45.636;11.752;2023-12-20T08:02:02;45.90;;;24.92;;
78053;SDS011;67726;45.636;11.752;2023-12-20T08:04:28;46.07;;;24.80;;
78053;SDS011;67726;45.636;11.752;2023-12-20T08:06:54;39.40;;;24.38;;
78053;SDS011;67726;45.636;11.752;2023-12-20T08:09:20;48.38;;;24.50;;
78053;SDS011;67726;45.636;11.752;2023-12-20T08:11:46;40.93;;;21.80;;
78053;SDS011;67726;45.636;11.752;2023-12-20T08:14:12;42.05;;;23.42;;
78053;SDS011;67726;45.636;11.752;2023-12-20T08:16:38;43.97;;;24.50;;
78053;SDS011;67726;45.636;11.752;2023-12-20T08:19:03;51.00;;;27.73;;
78053;SDS011;67726;45.636;11.752;2023-12-20T08:21:29;48.97;;;24.60;;
78053;SDS011;67726;45.636;11.752;2023-12-20T08:23:55;49.38;;;25.00;;
78053;SDS011;67726;45.636;11.752;2023-12-20T08:26:21;46.78;;;24.60;;
78053;SDS011;67726;45.636;11.752;2023-12-20T08:28:48;49.83;;;25.57;;
78053;SDS011;67726;45.636;11.752;2023-12-20T08:31:14;48.20;;;25.92;;
78053;SDS011;67726;45.636;11.752;2023-12-20T08:33:44;44.30;;;25.25;;
78053;SDS011;67726;45.636;11.752;2023-12-20T08:36:10;39.95;;;23.15;;
78053;SDS011;67726;45.636;11.752;2023-12-20T08:38:37;43.53;;;25.05;;
78053;SDS011;67726;45.636;11.752;2023-12-20T08:41:02;45.60;;;24.73;;
78053;SDS011;67726;45.636;11.752;2023-12-20T08:43:30;46.28;;;25.25;;
78053;SDS011;67726;45.636;11.752;2023-12-20T08:45:56;45.90;;;22.98;;
78053;SDS011;67726;45.636;11.752;2023-12-20T08:48:22;44.67;;;24.60;;
78053;SDS011;67726;45.636;11.752;2023-12-20T08:50:48;47.08;;;23.33;;
78053;SDS011;67726;45.636;11.752;2023-12-20T08:53:17;47.20;;;25.65;;
78053;SDS011;67726;45.636;11.752;2023-12-20T08:55:43;43.05;;;25.30;;
78053;SDS011;67726;45.636;11.752;2023-12-20T08:58:09;40.37;;;21.47;;
78053;SDS011;67726;45.636;11.752;2023-12-20T09:00:35;32.80;;;19.42;;
78053;SDS011;67726;45.636;11.752;2023-12-20T09:03:01;33.60;;;17.50;;
78053;SDS011;67726;45.636;11.752;2023-12-20T09:05:27;34.15;;;18.17;;
78053;SDS011;67726;45.636;11.752;2023-12-20T09:07:53;31.52;;;17.83;;
78053;SDS011;67726;45.636;11.752;2023-12-20T09:10:19;34.90;;;18.40;;
78053;SDS011;67726;45.636;11.752;2023-12-20T09:12:50;36.78;;;19.25;;
78053;SDS011;67726;45.636;11.752;2023-12-20T09:15:21;32.50;;;19.10;;
78053;SDS011;67726;45.636;11.752;2023-12-20T09:17:47;33.92;;;19.33;;
78053;SDS011;67726;45.636;11.752;2023-12-20T09:20:13;34.20;;;18.77;;
78053;SDS011;67726;45.636;11.752;2023-12-20T09:22:39;28.65;;;16.52;;
78053;SDS011;67726;45.636;11.752;2023-12-20T09:25:06;29.65;;;17.65;;
78053;SDS011;67726;45.636;11.752;2023-12-20T09:27:33;34.80;;;17.97;;
78053;SDS011;67726;45.636;11.752;2023-12-20T09:29:58;34.92;;;17.67;;
78053;SDS011;67726;45.636;11.752;2023-12-20T09:32:24;34.77;;;17.43;;
78053;SDS011;67726;45.636;11.752;2023-12-20T09:34:49;35.17;;;18.25;;
78053;SDS011;67726;45.636;11.752;2023-12-20T09:37:15;36.70;;;19.90;;
78053;SDS011;67726;45.636;11.752;2023-12-20T09:39:41;38.65;;;20.25;;
78053;SDS011;67726;45.636;11.752;2023-12-20T09:42:07;39.43;;;20.10;;
78053;SDS011;67726;45.636;11.752;2023-12-20T09:44:33;37.38;;;19.95;;
78053;SDS011;67726;45.636;11.752;2023-12-20T09:47:02;43.00;;;21.13;;
78053;SDS011;67726;45.636;11.752;2023-12-20T09:49:29;36.97;;;19.97;;
78053;SDS011;67726;45.636;11.752;2023-12-20T09:51:55;44.90;;;20.98;;
78053;SDS011;67726;45.636;11.752;2023-12-20T09:54:22;40.95;;;21.27;;
78053;SDS011;67726;45.636;11.752;2023-12-20T09:56:49;41.35;;;20.05;;
78053;SDS011;67726;45.636;11.752;2023-12-20T09:59:15;33.50;;;19.27;;
78053;SDS011;67726;45.636;11.752;2023-12-20T10:01:41;32.50;;;19.60;;
78053;SDS011;67726;45.636;11.752;2023-12-20T10:04:08;35.30;;;18.95;;
78053;SDS011;67726;45.636;11.752;2023-12-20T10:06:40;34.08;;;17.95;;
78053;SDS011;67726;45.636;11.752;2023-12-20T10:09:06;33.08;;;19.15;;
78053;SDS011;67726;45.636;11.752;2023-12-20T10:11:32;35.10;;;19.23;;
78053;SDS011;67726;45.636;11.752;2023-12-20T10:13:59;31.92;;;18.30;;
78053;SDS011;67726;45.636;11.752;2023-12-20T10:16:28;33.17;;;18.42;;
78053;SDS011;67726;45.636;11.752;2023-12-20T10:18:55;37.28;;;19.90;;
78053;SDS011;67726;45.636;11.752;2023-12-20T10:21:24;37.72;;;20.50;;
78053;SDS011;67726;45.636;11.752;2023-12-20T10:23:54;49.33;;;23.70;;
78053;SDS011;67726;45.636;11.752;2023-12-20T10:26:24;53.88;;;24.02;;
78053;SDS011;67726;45.636;11.752;2023-12-20T10:28:52;47.63;;;23.52;;
78053;SDS011;67726;45.636;11.752;2023-12-20T10:31:26;46.63;;;24.08;;
78053;SDS011;67726;45.636;11.752;2023-12-20T10:33:59;46.53;;;23.50;;
78053;SDS011;67726;45.636;11.752;2023-12-20T10:36:26;39.70;;;21.23;;
78053;SDS011;67726;45.636;11.752;2023-12-20T10:38:57;40.28;;;19.73;;
78053;SDS011;67726;45.636;11.752;2023-12-20T10:41:26;37.03;;;21.95;;
78053;SDS011;67726;45.636;11.752;2023-12-20T10:43:54;34.40;;;20.90;;
78053;SDS011;67726;45.636;11.752;2023-12-20T10:46:25;35.03;;;21.05;;
78053;SDS011;67726;45.636;11.752;2023-12-20T10:48:55;38.43;;;22.47;;
78053;SDS011;67726;45.636;11.752;2023-12-20T10:51:21;43.42;;;22.38;;
78053;SDS011;67726;45.636;11.752;2023-12-20T10:53:49;39.22;;;23.10;;
78053;SDS011;67726;45.636;11.752;2023-12-20T10:56:16;39.28;;;25.20;;
78053;SDS011;67726;45.636;11.752;2023-12-20T10:58:49;41.58;;;23.35;;
78053;SDS011;67726;45.636;11.752;2023-12-20T11:01:19;37.07;;;22.13;;
78053;SDS011;67726;45.636;11.752;2023-12-20T11:03:49;38.78;;;22.15;;
78053;SDS011;67726;45.636;11.752;2023-12-20T11:14:03;38.33;;;21.30;;
78053;SDS011;67726;45.636;11.752;2023-12-20T11:16:36;39.60;;;22.10;;
78053;SDS011;67726;45.636;11.752;2023-12-20T11:19:05;44.15;;;22.55;;
78053;SDS011;67726;45.636;11.752;2023-12-20T11:21:31;43.15;;;23.80;;
78053;SDS011;67726;45.636;11.752;2023-12-20T11:23:58;43.85;;;23.90;;
78053;SDS011;67726;45.636;11.752;2023-12-20T11:26:28;44.10;;;23.53;;
78053;SDS011;67726;45.636;11.752;2023-12-20T11:29:28;45.53;;;24.55;;
78053;SDS011;67726;45.636;11.752;2023-12-20T11:32:00;43.95;;;22.55;;
78053;SDS011;67726;45.636;11.752;2023-12-20T11:34:59;43.70;;;22.05;;
78053;SDS011;67726;45.636;11.752;2023-12-20T11:37:31;42.05;;;23.08;;
78053;SDS011;67726;45.636;11.752;2023-12-20T11:40:04;45.53;;;23.33;;
78053;SDS011;67726;45.636;11.752;2023-12-20T11:42:33;42.08;;;23.33;;
78053;SDS011;67726;45.636;11.752;2023-12-20T11:45:02;41.67;;;23.95;;
78053;SDS011;67726;45.636;11.752;2023-12-20T11:47:29;37.58;;;21.55;;
78053;SDS011;67726;45.636;11.752;2023-12-20T11:49:56;42.70;;;23.15;;
78053;SDS011;67726;45.636;11.752;2023-12-20T11:52:22;45.20;;;23.17;;
78053;SDS011;67726;45.636;11.752;2023-12-20T11:54:47;38.05;;;22.60;;
78053;SDS011;67726;45.636;11.752;2023-12-20T11:57:13;38.00;;;22.50;;
78053;SDS011;67726;45.636;11.752;2023-12-20T11:59:39;35.83;;;20.27;;
78053;SDS011;67726;45.636;11.752;2023-12-20T12:02:05;39.50;;;23.53;;
78053;SDS011;67726;45.636;11.752;2023-12-20T12:04:31;40.78;;;23.40;;
78053;SDS011;67726;45.636;11.752;2023-12-20T12:06:56;42.65;;;24.10;;
78053;SDS011;67726;45.636;11.752;2023-12-20T12:09:22;41.97;;;23.90;;
78053;SDS011;67726;45.636;11.752;2023-12-20T12:11:48;38.78;;;22.38;;
78053;SDS011;67726;45.636;11.752;2023-12-20T12:14:14;43.47;;;24.17;;
78053;SDS011;67726;45.636;11.752;2023-12-20T12:16:41;44.60;;;23.95;;
78053;SDS011;67726;45.636;11.752;2023-12-20T12:19:14;44.60;;;24.55;;
78053;SDS011;67726;45.636;11.752;2023-12-20T12:21:49;38.40;;;23.73;;
78053;SDS011;67726;45.636;11.752;2023-12-20T12:24:38;47.53;;;25.23;;
78053;SDS011;67726;45.636;11.752;2023-12-20T12:27:07;45.78;;;23.13;;
78053;SDS011;67726;45.636;11.752;2023-12-20T12:29:34;43.67;;;24.15;;
78053;SDS011;67726;45.636;11.752;2023-12-20T12:32:00;42.90;;;25.52;;
78053;SDS011;67726;45.636;11.752;2023-12-20T12:34:29;55.55;;;28.17;;
78053;SDS011;67726;45.636;11.752;2023-12-20T12:36:55;50.50;;;27.90;;
78053;SDS011;67726;45.636;11.752;2023-12-20T12:39:22;46.83;;;26.23;;
78053;SDS011;67726;45.636;11.752;2023-12-20T12:41:52;43.78;;;25.60;;
78053;SDS011;67726;45.636;11.752;2023-12-20T12:44:20;44.57;;;24.00;;
78053;SDS011;67726;45.636;11.752;2023-12-20T12:46:48;49.42;;;26.30;;
78053;SDS011;67726;45.636;11.752;2023-12-20T12:49:19;48.63;;;27.15;;
78053;SDS011;67726;45.636;11.752;2023-12-20T12:51:46;45.47;;;25.98;;
78053;SDS011;67726;45.636;11.752;2023-12-20T12:54:12;47.47;;;26.63;;
78053;SDS011;67726;45.636;11.752;2023-12-20T12:56:38;46.85;;;24.13;;
78053;SDS011;67726;45.636;11.752;2023-12-20T12:59:04;56.13;;;29.30;;
78053;SDS011;67726;45.636;11.752;2023-12-20T13:01:30;46.55;;;26.27;;
78053;SDS011;67726;45.636;11.752;2023-12-20T13:03:56;49.65;;;27.13;;
78053;SDS011;67726;45.636;11.752;2023-12-20T13:06:22;74.47;;;31.60;;
78053;SDS011;67726;45.636;11.752;2023-12-20T13:08:48;64.78;;;30.10;;
78053;SDS011;67726;45.636;11.752;2023-12-20T13:11:14;55.70;;;28.10;;
78053;SDS011;67726;45.636;11.752;2023-12-20T13:13:40;48.50;;;26.03;;
78053;SDS011;67726;45.636;11.752;2023-12-20T13:16:06;50.25;;;25.35;;
78053;SDS011;67726;45.636;11.752;2023-12-20T13:18:33;46.97;;;24.93;;
78053;SDS011;67726;45.636;11.752;2023-12-20T13:20:58;50.92;;;25.15;;
78053;SDS011;67726;45.636;11.752;2023-12-20T13:23:24;43.70;;;22.23;;
78053;SDS011;67726;45.636;11.752;2023-12-20T13:25:50;36.43;;;22.30;;
78053;SDS011;67726;45.636;11.752;2023-12-20T13:28:15;45.08;;;24.80;;
78053;SDS011;67726;45.636;11.752;2023-12-20T13:30:41;47.27;;;25.70;;
78053;SDS011;67726;45.636;11.752;2023-12-20T13:33:07;46.20;;;24.83;;
78053;SDS011;67726;45.636;11.752;2023-12-20T13:35:33;42.53;;;25.48;;
78053;SDS011;67726;45.636;11.752;2023-12-20T13:38:00;46.95;;;26.73;;
78053;SDS011;67726;45.636;11.752;2023-12-20T13:40:26;49.03;;;28.00;;
78053;SDS011;67726;45.636;11.752;2023-12-20T13:42:53;47.23;;;26.93;;
78053;SDS011;67726;45.636;11.752;2023-12-20T13:45:19;45.15;;;26.52;;
78053;SDS011;67726;45.636;11.752;2023-12-20T13:47:45;56.55;;;27.00;;
78053;SDS011;67726;45.636;11.752;2023-12-20T13:50:11;51.13;;;25.73;;
78053;SDS011;67726;45.636;11.752;2023-12-20T13:52:37;49.63;;;25.95;;
78053;SDS011;67726;45.636;11.752;2023-12-20T13:55:03;48.30;;;26.50;;
78053;SDS011;67726;45.636;11.752;2023-12-20T13:57:32;49.35;;;25.27;;
78053;SDS011;67726;45.636;11.752;2023-12-20T13:59:58;47.47;;;24.97;;
78053;SDS011;67726;45.636;11.752;2023-12-20T14:02:24;46.70;;;22.65;;
78053;SDS011;67726;45.636;11.752;2023-12-20T14:04:51;35.13;;;19.88;;
78053;SDS011;67726;45.636;11.752;2023-12-20T14:07:17;32.10;;;17.97;;
78053;SDS011;67726;45.636;11.752;2023-12-20T14:09:43;36.10;;;19.20;;
78053;SDS011;67726;45.636;11.752;2023-12-20T14:12:10;32.40;;;17.67;;